Terminal Aerodrome Forecast
Issued by NWS

Home | Current Version | Previous Version | Text Only | Print | Product List | Glossary On
Versions: 1 2 3 4 5 6 7 8 9 10 11 12 13 14 15
000
FTUS42 KTAE 300109 AAA
TAFDHN
TAF AMD
KDHN 300109Z 3001/3024 32007KT P6SM VCSH OVC026
      TEMPO 3001/3004 2SM +RA
     FM300800 VRB03KT 5SM BR BKN007
     FM301400 05004KT P6SM SCT010 SCT040
     FM301800 05005KT P6SM SCT040=

USA.gov is the U.S. government's official web portal to all federal, state and local government web resources and services.